createdAt,value
2018-07-23T00:00:41.332Z,101392.88
2018-07-23T00:04:05.831Z,101393.47
2018-07-23T00:07:30.307Z,101399.13
2018-07-23T00:10:54.751Z,101404.13
2018-07-23T00:14:19.217Z,101400.61
2018-07-23T00:17:43.661Z,101400.69
2018-07-23T00:21:08.154Z,101400.83
2018-07-23T00:24:32.621Z,101402.00
2018-07-23T00:27:57.114Z,101399.03
2018-07-23T00:31:21.557Z,101402.80
2018-07-23T00:34:46.035Z,101401.20
2018-07-23T00:38:10.497Z,101402.13
2018-07-23T00:41:34.948Z,101402.42
2018-07-23T00:44:59.427Z,101402.41
2018-07-23T00:48:23.885Z,101402.80
2018-07-23T00:51:48.353Z,101400.66
2018-07-23T00:55:12.802Z,101404.58
2018-07-23T00:58:37.339Z,101403.91
2018-07-23T01:02:01.772Z,101405.11
2018-07-23T01:05:26.220Z,101405.33
2018-07-23T01:08:50.691Z,101410.53
2018-07-23T01:12:33.320Z,101412.77
2018-07-23T01:15:57.788Z,101417.00
2018-07-23T01:19:22.309Z,101411.60
2018-07-23T01:22:46.780Z,101418.60
2018-07-23T01:26:11.219Z,101418.25
2018-07-23T01:29:35.688Z,101419.06
2018-07-23T01:33:00.163Z,101418.33
2018-07-23T01:36:24.616Z,101419.30
2018-07-23T01:39:49.078Z,101418.05
2018-07-23T01:43:13.529Z,101422.14
2018-07-23T01:46:37.992Z,101421.58
2018-07-23T01:50:02.432Z,101423.58
2018-07-23T01:53:26.890Z,101420.08
2018-07-23T01:56:51.397Z,101424.25
2018-07-23T02:00:15.864Z,101418.23
2018-07-23T02:03:41.464Z,101423.83
2018-07-23T02:07:06.882Z,101420.47
2018-07-23T02:10:31.400Z,101423.09
2018-07-23T02:13:55.871Z,101423.16
2018-07-23T02:17:20.305Z,101426.04
2018-07-23T02:20:44.814Z,101428.56
2018-07-23T02:24:09.323Z,101425.83
2018-07-23T02:27:33.956Z,101426.39
2018-07-23T02:30:58.422Z,101431.50
2018-07-23T02:34:22.867Z,101433.11
2018-07-23T02:37:47.339Z,101431.86
2018-07-23T02:41:11.875Z,101427.85
2018-07-23T02:44:36.359Z,101432.16
2018-07-23T02:48:00.838Z,101427.70
2018-07-23T02:51:25.300Z,101433.23
2018-07-23T02:54:49.752Z,101430.08
2018-07-23T02:58:14.232Z,101430.28
2018-07-23T03:01:38.743Z,101433.02
2018-07-23T03:05:03.227Z,101434.13
2018-07-23T03:08:27.688Z,101438.49
2018-07-23T03:11:52.129Z,101434.33
2018-07-23T03:15:16.620Z,101432.37
2018-07-23T03:18:41.123Z,101441.67
2018-07-23T03:22:05.581Z,101439.23
2018-07-23T03:25:30.045Z,101437.20
2018-07-23T03:28:54.474Z,101443.45
2018-07-23T03:32:18.910Z,101448.77
2018-07-23T03:35:43.366Z,101449.08
2018-07-23T03:39:10.016Z,101449.78
2018-07-23T03:42:34.478Z,101452.88
2018-07-23T03:45:58.972Z,101451.30
2018-07-23T03:49:23.434Z,101462.73
2018-07-23T03:52:47.954Z,101456.41
2018-07-23T03:56:12.447Z,101466.69
2018-07-23T03:59:36.942Z,101462.74
2018-07-23T04:03:01.404Z,101466.27
2018-07-23T04:06:25.862Z,101473.80
2018-07-23T04:09:50.317Z,101472.09
2018-07-23T04:13:14.772Z,101464.31
2018-07-23T04:16:39.228Z,101462.73
2018-07-23T04:20:03.836Z,101460.81
2018-07-23T04:23:28.287Z,101468.22
2018-07-23T04:26:52.856Z,101466.64
2018-07-23T04:30:17.328Z,101465.62
2018-07-23T04:33:41.789Z,101472.82
2018-07-23T04:37:06.285Z,101470.13
2018-07-23T04:40:30.788Z,101478.27
2018-07-23T04:43:55.267Z,101476.39
2018-07-23T04:47:19.705Z,101475.42
2018-07-23T04:50:44.203Z,101479.22
2018-07-23T04:54:08.707Z,101484.71
2018-07-23T04:57:33.296Z,101485.19
2018-07-23T05:00:57.943Z,101490.91
2018-07-23T05:04:22.406Z,101493.41
2018-07-23T05:07:46.924Z,101489.20
2018-07-23T05:11:11.363Z,101490.63
2018-07-23T05:14:35.859Z,101492.09
2018-07-23T05:18:00.334Z,101484.74
2018-07-23T05:21:24.847Z,101485.08
2018-07-23T05:24:49.313Z,101484.20
2018-07-23T05:28:13.809Z,101483.93
2018-07-23T05:31:38.315Z,101491.20
2018-07-23T05:35:02.835Z,101493.11
2018-07-23T05:38:27.125Z,101496.28
2018-07-23T05:41:51.607Z,101492.91
2018-07-23T05:45:16.180Z,101493.77
2018-07-23T05:48:40.639Z,101495.11
2018-07-23T05:52:05.114Z,101502.42
2018-07-23T05:55:29.558Z,101504.52
2018-07-23T05:58:54.080Z,101496.11
2018-07-23T06:02:18.543Z,101498.85
2018-07-23T06:05:43.032Z,101500.79
2018-07-23T06:09:09.832Z,101496.48
2018-07-23T06:13:08.426Z,101498.55
2018-07-23T06:16:33.124Z,101497.69
2018-07-23T06:19:57.606Z,101498.51
2018-07-23T06:23:22.077Z,101491.20
2018-07-23T06:26:46.556Z,101493.77
2018-07-23T06:30:12.248Z,101493.59
2018-07-23T06:33:36.787Z,101501.54
2018-07-23T06:37:01.273Z,101504.11
2018-07-23T06:40:25.755Z,101507.56
2018-07-23T06:43:50.221Z,101508.61
2018-07-23T06:47:14.677Z,101511.52
2018-07-23T06:50:39.256Z,101508.50
2018-07-23T06:54:03.776Z,101517.52
2018-07-23T06:57:28.291Z,101522.48
2018-07-23T07:00:52.770Z,101516.59
2018-07-23T07:04:20.245Z,101513.81
2018-07-23T07:07:44.699Z,101518.72
2018-07-23T07:11:09.187Z,101519.97
2018-07-23T07:14:33.668Z,101519.60
2018-07-23T07:17:58.186Z,101515.67
2018-07-23T07:21:22.703Z,101515.76
2018-07-23T07:24:47.199Z,101516.94
2018-07-23T07:28:11.723Z,101517.11
2018-07-23T07:31:36.250Z,101525.25
2018-07-23T07:35:00.693Z,101520.83
2018-07-23T07:38:25.262Z,101516.98
2018-07-23T07:41:49.683Z,101515.34
2018-07-23T07:45:14.178Z,101513.43
2018-07-23T07:48:38.667Z,101516.05
2018-07-23T07:52:03.217Z,101516.36
2018-07-23T07:55:27.664Z,101512.86
2018-07-23T07:58:52.169Z,101514.68
2018-07-23T08:02:16.686Z,101512.52
2018-07-23T08:05:41.147Z,101523.12
2018-07-23T08:09:08.638Z,101519.81
2018-07-23T08:12:33.171Z,101523.02
2018-07-23T08:15:57.590Z,101512.30
2018-07-23T08:19:22.085Z,101510.91
2018-07-23T08:22:46.549Z,101520.23
2018-07-23T08:26:10.992Z,101512.83
2018-07-23T08:29:35.499Z,101515.00
2018-07-23T08:33:00.012Z,101513.80
2018-07-23T08:36:24.494Z,101522.23
2018-07-23T08:39:48.975Z,101517.99
2018-07-23T08:43:13.424Z,101529.69
2018-07-23T08:46:37.885Z,101518.85
2018-07-23T08:50:02.339Z,101516.98
2018-07-23T08:53:30.337Z,101518.23
2018-07-23T08:56:54.790Z,101515.14
2018-07-23T09:00:19.282Z,101512.66
2018-07-23T09:03:43.722Z,101524.88
2018-07-23T09:07:08.142Z,101524.19
2018-07-23T09:10:32.627Z,101524.21
2018-07-23T09:13:57.121Z,101516.78
2018-07-23T09:17:21.577Z,101520.89
2018-07-23T09:20:46.012Z,101521.20
2018-07-23T09:24:10.472Z,101528.70
2018-07-23T09:27:35.111Z,101523.28
2018-07-23T09:30:59.657Z,101519.20
2018-07-23T09:34:24.023Z,101523.23
2018-07-23T09:37:48.492Z,101515.64
2018-07-23T09:41:12.929Z,101514.60
2018-07-23T09:44:37.400Z,101516.01
2018-07-23T09:48:01.872Z,101514.51
2018-07-23T09:51:26.419Z,101512.39
2018-07-23T09:54:50.870Z,101511.55
2018-07-23T09:58:15.326Z,101512.89
2018-07-23T10:01:39.839Z,101514.84
2018-07-23T10:05:04.467Z,101514.66
2018-07-23T10:08:28.942Z,101514.95
2018-07-23T10:11:53.464Z,101510.50
2018-07-23T10:15:17.958Z,101516.19
2018-07-23T10:18:42.446Z,101517.16
2018-07-23T10:22:07.001Z,101517.31
2018-07-23T10:25:31.447Z,101519.77
2018-07-23T10:28:55.919Z,101498.77
2018-07-23T10:32:20.373Z,101502.47
2018-07-23T10:35:44.959Z,101496.23
2018-07-23T10:39:10.386Z,101499.16
2018-07-23T10:42:34.908Z,101495.00
2018-07-23T10:45:59.394Z,101507.57
2018-07-23T10:49:23.849Z,101497.48
2018-07-23T10:52:48.365Z,101497.59
2018-07-23T10:56:12.843Z,101494.55
2018-07-23T10:59:37.346Z,101495.52
2018-07-23T11:03:01.811Z,101497.83
2018-07-23T11:06:26.355Z,101489.80
2018-07-23T11:09:50.839Z,101493.75
2018-07-23T11:13:15.300Z,101488.89
2018-07-23T11:16:39.784Z,101483.09
2018-07-23T11:20:04.376Z,101479.36
2018-07-23T11:23:28.867Z,101486.36
2018-07-23T11:26:53.534Z,101478.14
2018-07-23T11:30:18.032Z,101477.71
2018-07-23T11:33:42.527Z,101475.34
2018-07-23T11:37:06.999Z,101472.42
2018-07-23T11:40:31.508Z,101469.35
2018-07-23T11:43:55.939Z,101477.29
2018-07-23T11:47:20.395Z,101471.95
2018-07-23T11:50:44.909Z,101477.63
2018-07-23T11:54:12.496Z,101473.91
2018-07-23T11:57:36.949Z,101469.31
2018-07-23T12:01:01.737Z,101468.76
2018-07-23T12:04:26.269Z,101471.37
2018-07-23T12:07:50.649Z,101467.34
2018-07-23T12:11:15.116Z,101471.06
2018-07-23T12:14:39.521Z,101459.54
2018-07-23T12:18:03.991Z,101458.30
2018-07-23T12:21:28.452Z,101452.33
2018-07-23T12:24:52.909Z,101442.12
2018-07-23T12:28:17.529Z,101447.81
2018-07-23T12:31:41.978Z,101457.48
2018-07-23T12:35:06.583Z,101454.59
2018-07-23T12:38:31.050Z,101448.39
2018-07-23T12:41:55.563Z,101453.05
2018-07-23T12:45:20.053Z,101447.89
2018-07-23T12:48:44.547Z,101448.02
2018-07-23T12:52:09.180Z,101441.84
2018-07-23T12:55:33.725Z,101443.20
2018-07-23T12:58:58.263Z,101441.45
2018-07-23T13:02:22.704Z,101438.88
2018-07-23T13:05:47.192Z,101438.83
2018-07-23T13:09:13.034Z,101431.02
2018-07-23T13:12:37.511Z,101433.63
2018-07-23T13:16:01.994Z,101433.25
2018-07-23T13:19:26.474Z,101424.66
2018-07-23T13:22:50.946Z,101420.28
2018-07-23T13:26:15.478Z,101417.80
2018-07-23T13:29:39.974Z,101419.30
2018-07-23T13:33:04.439Z,101409.38
2018-07-23T13:36:28.917Z,101409.61
2018-07-23T13:39:53.432Z,101420.52
2018-07-23T13:43:17.953Z,101412.17
2018-07-23T13:46:42.501Z,101409.48
2018-07-23T13:50:07.096Z,101417.27
2018-07-23T13:53:31.608Z,101414.38
2018-07-23T13:56:55.803Z,101396.09
2018-07-23T14:00:20.342Z,101402.91
2018-07-23T14:03:44.892Z,101402.77
2018-07-23T14:07:09.393Z,101406.06
2018-07-23T14:10:33.906Z,101396.20
2018-07-23T14:13:58.377Z,101396.81
2018-07-23T14:17:22.908Z,101389.74
2018-07-23T14:20:47.445Z,101390.72
2018-07-23T14:24:11.936Z,101386.44
2018-07-23T14:27:36.418Z,101388.88
2018-07-23T14:31:00.903Z,101378.75
2018-07-23T14:34:25.399Z,101379.50
2018-07-23T14:37:49.901Z,101382.03
2018-07-23T14:41:14.421Z,101374.44
2018-07-23T14:44:38.909Z,101378.68
2018-07-23T14:48:03.413Z,101373.50
2018-07-23T14:51:28.028Z,101370.59
2018-07-23T14:54:52.489Z,101363.02
2018-07-23T14:58:17.042Z,101362.84
2018-07-23T15:01:41.540Z,101360.77
2018-07-23T15:05:06.535Z,101360.91
2018-07-23T15:08:31.039Z,101357.66
2018-07-23T15:11:55.537Z,101356.05
2018-07-23T15:15:20.021Z,101355.83
2018-07-23T15:18:44.501Z,101352.68
2018-07-23T15:22:09.069Z,101351.34
2018-07-23T15:25:33.564Z,101353.22
2018-07-23T15:28:58.065Z,101345.09
2018-07-23T15:32:22.511Z,101342.70
2018-07-23T15:35:46.989Z,101346.71
2018-07-23T15:39:11.877Z,101339.50
2018-07-23T15:42:36.386Z,101343.90
2018-07-23T15:46:00.941Z,101333.74
2018-07-23T15:49:25.347Z,101335.62
2018-07-23T15:52:49.865Z,101331.88
2018-07-23T15:56:14.560Z,101330.97
2018-07-23T15:59:39.021Z,101336.45
2018-07-23T16:03:03.486Z,101333.11
2018-07-23T16:06:28.013Z,101336.09
2018-07-23T16:09:52.520Z,101332.80
2018-07-23T16:13:17.011Z,101326.20
2018-07-23T16:16:41.477Z,101324.30
2018-07-23T16:20:06.603Z,101322.45
2018-07-23T16:23:31.032Z,101315.27
2018-07-23T16:26:55.440Z,101319.48
2018-07-23T16:30:19.843Z,101320.12
2018-07-23T16:33:44.367Z,101318.20
2018-07-23T16:37:08.849Z,101317.32
2018-07-23T16:40:33.387Z,101314.91
2018-07-23T16:43:57.896Z,101321.53
2018-07-23T16:47:22.355Z,101320.44
2018-07-23T16:50:46.783Z,101314.66
2018-07-23T16:54:11.284Z,101313.95
2018-07-23T16:57:35.775Z,101316.33
2018-07-23T17:01:00.245Z,101313.52
2018-07-23T17:04:24.672Z,101315.77
2018-07-23T17:07:49.125Z,101313.55
2018-07-23T17:11:13.538Z,101305.02
2018-07-23T17:14:38.002Z,101309.52
2018-07-23T17:18:02.518Z,101303.47
2018-07-23T17:21:26.900Z,101306.98
2018-07-23T17:24:51.334Z,101302.04
2018-07-23T17:28:15.756Z,101311.95
2018-07-23T17:31:40.254Z,101310.18
2018-07-23T17:35:04.745Z,101312.33
2018-07-23T17:38:29.170Z,101312.82
2018-07-23T17:41:53.611Z,101307.70
2018-07-23T17:45:18.056Z,101305.95
2018-07-23T17:48:42.490Z,101305.22
2018-07-23T17:52:06.976Z,101304.41
2018-07-23T17:55:31.397Z,101314.67
2018-07-23T17:58:55.978Z,101307.35
2018-07-23T18:02:20.578Z,101307.91
2018-07-23T18:05:45.040Z,101308.22
2018-07-23T18:09:11.734Z,101306.21
2018-07-23T18:12:36.156Z,101317.63
2018-07-23T18:16:00.602Z,101307.16
2018-07-23T18:19:31.588Z,101305.59
2018-07-23T18:22:55.979Z,101300.70
2018-07-23T18:26:20.427Z,101306.59
2018-07-23T18:29:44.921Z,101310.05
2018-07-23T18:33:09.342Z,101308.07
2018-07-23T18:36:33.542Z,101304.13
2018-07-23T18:39:57.973Z,101308.48
2018-07-23T18:43:22.406Z,101305.14
2018-07-23T18:46:46.894Z,101306.18
2018-07-23T18:50:11.319Z,101311.77
2018-07-23T18:53:35.758Z,101307.69
2018-07-23T18:57:01.634Z,101307.91
2018-07-23T19:00:26.076Z,101303.73
2018-07-23T19:03:50.519Z,101296.30
2018-07-23T19:07:14.972Z,101305.16
2018-07-23T19:10:39.434Z,101305.70
2018-07-23T19:14:03.962Z,101301.41
2018-07-23T19:17:35.063Z,101314.91
2018-07-23T19:20:59.519Z,101310.69
2018-07-23T19:24:23.995Z,101317.58
2018-07-23T19:27:48.444Z,101320.24
2018-07-23T19:31:12.886Z,101324.34
2018-07-23T19:34:37.359Z,101322.09
2018-07-23T19:38:01.765Z,101324.78
2018-07-23T19:41:26.967Z,101330.02
2018-07-23T19:44:51.472Z,101330.95
2018-07-23T19:48:15.956Z,101333.75
2018-07-23T19:51:40.450Z,101333.48
2018-07-23T19:55:05.054Z,101339.09
2018-07-23T19:58:29.620Z,101339.05
2018-07-23T20:01:54.078Z,101339.73
2018-07-23T20:05:18.539Z,101336.19
2018-07-23T20:08:43.796Z,101334.22
2018-07-23T20:12:08.321Z,101335.41
2018-07-23T20:15:32.749Z,101336.84
2018-07-23T20:18:57.271Z,101338.67
2018-07-23T20:22:21.710Z,101338.18
2018-07-23T20:25:46.224Z,101341.98
2018-07-23T20:29:10.672Z,101340.06
2018-07-23T20:32:35.132Z,101341.68
2018-07-23T20:35:59.571Z,101341.80
2018-07-23T20:39:24.099Z,101336.06
2018-07-23T20:42:48.548Z,101339.55
2018-07-23T20:46:13.008Z,101340.27
2018-07-23T20:49:37.469Z,101340.80
2018-07-23T20:53:01.911Z,101339.38
2018-07-23T20:56:26.408Z,101336.08
2018-07-23T20:59:50.858Z,101339.09
2018-07-23T21:03:15.290Z,101333.75
2018-07-23T21:06:39.758Z,101332.55
2018-07-23T21:10:04.329Z,101331.75
2018-07-23T21:13:28.761Z,101331.02
2018-07-23T21:16:53.242Z,101338.91
2018-07-23T21:20:17.761Z,101339.99
2018-07-23T21:23:42.272Z,101341.45
2018-07-23T21:27:06.772Z,101343.88
2018-07-23T21:30:31.241Z,101341.33
2018-07-23T21:33:55.703Z,101347.84
2018-07-23T21:37:20.160Z,101344.06
2018-07-23T21:40:44.574Z,101351.50
2018-07-23T21:44:09.057Z,101354.23
2018-07-23T21:47:33.529Z,101355.70
2018-07-23T21:50:57.999Z,101356.39
2018-07-23T21:54:22.521Z,101361.81
2018-07-23T21:57:46.949Z,101356.36
2018-07-23T22:01:11.447Z,101353.25
2018-07-23T22:04:35.970Z,101353.84
2018-07-23T22:08:00.445Z,101359.17
2018-07-23T22:11:24.900Z,101351.87
2018-07-23T22:14:49.372Z,101357.96
2018-07-23T22:18:13.810Z,101358.56
2018-07-23T22:21:38.287Z,101360.00
2018-07-23T22:25:02.741Z,101359.73
2018-07-23T22:28:27.197Z,101358.30
2018-07-23T22:31:51.698Z,101361.06
2018-07-23T22:35:16.152Z,101357.06
2018-07-23T22:38:40.630Z,101358.87
2018-07-23T22:42:05.267Z,101359.78
2018-07-23T22:45:29.712Z,101353.36
2018-07-23T22:48:54.192Z,101355.68
2018-07-23T22:52:18.651Z,101352.48
2018-07-23T22:55:43.102Z,101352.51
2018-07-23T22:59:07.554Z,101349.05
2018-07-23T23:02:31.985Z,101348.59
2018-07-23T23:05:56.465Z,101350.70
2018-07-23T23:09:20.882Z,101349.80
2018-07-23T23:12:45.366Z,101353.80
2018-07-23T23:16:09.854Z,101350.33
2018-07-23T23:19:34.283Z,101349.31
2018-07-23T23:22:58.731Z,101357.44
2018-07-23T23:26:23.196Z,101358.48
2018-07-23T23:29:47.657Z,101346.23
2018-07-23T23:33:12.122Z,101348.19
2018-07-23T23:36:36.593Z,101343.20
2018-07-23T23:40:01.056Z,101337.70
2018-07-23T23:43:25.526Z,101343.91
2018-07-23T23:46:50.011Z,101348.24
2018-07-23T23:50:14.485Z,101344.97
2018-07-23T23:53:38.665Z,101343.03
2018-07-23T23:57:03.153Z,101342.56
